sensor_id;sensor_type;location;lat;lon;timestamp;P1;durP1;ratioP1;P2;durP2;ratioP2
7607;SDS011;3845;48.120;11.534;2023-09-30T00:00:23;16.50;;;9.40;;
7607;SDS011;3845;48.120;11.534;2023-09-30T00:02:49;19.43;;;11.07;;
7607;SDS011;3845;48.120;11.534;2023-09-30T00:05:15;21.90;;;11.53;;
7607;SDS011;3845;48.120;11.534;2023-09-30T00:07:40;19.67;;;11.27;;
7607;SDS011;3845;48.120;11.534;2023-09-30T00:10:06;18.73;;;10.07;;
7607;SDS011;3845;48.120;11.534;2023-09-30T00:12:31;14.17;;;8.73;;
7607;SDS011;3845;48.120;11.534;2023-09-30T00:14:57;19.40;;;10.53;;
7607;SDS011;3845;48.120;11.534;2023-09-30T00:17:22;16.57;;;8.50;;
7607;SDS011;3845;48.120;11.534;2023-09-30T00:19:47;14.23;;;8.00;;
7607;SDS011;3845;48.120;11.534;2023-09-30T00:22:13;15.40;;;8.50;;
7607;SDS011;3845;48.120;11.534;2023-09-30T00:24:38;12.90;;;7.80;;
7607;SDS011;3845;48.120;11.534;2023-09-30T00:27:03;14.80;;;8.40;;
7607;SDS011;3845;48.120;11.534;2023-09-30T00:29:29;12.60;;;7.70;;
7607;SDS011;3845;48.120;11.534;2023-09-30T00:31:54;16.00;;;8.60;;
7607;SDS011;3845;48.120;11.534;2023-09-30T00:34:19;13.77;;;8.20;;
7607;SDS011;3845;48.120;11.534;2023-09-30T00:36:44;13.43;;;7.23;;
7607;SDS011;3845;48.120;11.534;2023-09-30T00:39:10;16.57;;;9.37;;
7607;SDS011;3845;48.120;11.534;2023-09-30T00:41:35;17.30;;;10.27;;
7607;SDS011;3845;48.120;11.534;2023-09-30T00:44:01;17.63;;;9.77;;
7607;SDS011;3845;48.120;11.534;2023-09-30T00:46:34;15.60;;;8.43;;
7607;SDS011;3845;48.120;11.534;2023-09-30T00:49:01;17.03;;;9.77;;
7607;SDS011;3845;48.120;11.534;2023-09-30T00:51:27;15.80;;;9.07;;
7607;SDS011;3845;48.120;11.534;2023-09-30T00:53:54;15.13;;;8.80;;
7607;SDS011;3845;48.120;11.534;2023-09-30T00:56:21;14.30;;;8.80;;
7607;SDS011;3845;48.120;11.534;2023-09-30T00:58:48;14.77;;;8.37;;
7607;SDS011;3845;48.120;11.534;2023-09-30T01:01:16;13.37;;;7.27;;
7607;SDS011;3845;48.120;11.534;2023-09-30T01:03:42;12.70;;;7.53;;
7607;SDS011;3845;48.120;11.534;2023-09-30T01:06:07;14.97;;;8.30;;
7607;SDS011;3845;48.120;11.534;2023-09-30T01:08:32;13.53;;;7.70;;
7607;SDS011;3845;48.120;11.534;2023-09-30T01:10:59;12.80;;;7.47;;
7607;SDS011;3845;48.120;11.534;2023-09-30T01:13:31;14.70;;;8.13;;
7607;SDS011;3845;48.120;11.534;2023-09-30T01:16:06;14.80;;;7.87;;
7607;SDS011;3845;48.120;11.534;2023-09-30T01:18:34;14.87;;;7.53;;
7607;SDS011;3845;48.120;11.534;2023-09-30T01:21:03;15.50;;;8.30;;
7607;SDS011;3845;48.120;11.534;2023-09-30T01:23:31;14.90;;;7.90;;
7607;SDS011;3845;48.120;11.534;2023-09-30T01:25:56;15.07;;;8.20;;
7607;SDS011;3845;48.120;11.534;2023-09-30T01:28:24;13.00;;;8.17;;
7607;SDS011;3845;48.120;11.534;2023-09-30T01:30:49;14.73;;;8.47;;
7607;SDS011;3845;48.120;11.534;2023-09-30T01:33:14;15.33;;;8.27;;
7607;SDS011;3845;48.120;11.534;2023-09-30T01:35:43;14.33;;;8.43;;
7607;SDS011;3845;48.120;11.534;2023-09-30T01:38:09;13.53;;;8.07;;
7607;SDS011;3845;48.120;11.534;2023-09-30T01:40:35;14.37;;;8.17;;
7607;SDS011;3845;48.120;11.534;2023-09-30T01:43:02;14.97;;;7.60;;
7607;SDS011;3845;48.120;11.534;2023-09-30T01:45:27;14.23;;;8.07;;
7607;SDS011;3845;48.120;11.534;2023-09-30T01:47:53;13.63;;;7.97;;
7607;SDS011;3845;48.120;11.534;2023-09-30T01:50:18;13.67;;;8.20;;
7607;SDS011;3845;48.120;11.534;2023-09-30T01:52:43;13.63;;;7.73;;
7607;SDS011;3845;48.120;11.534;2023-09-30T01:55:09;13.87;;;7.57;;
7607;SDS011;3845;48.120;11.534;2023-09-30T01:57:34;14.17;;;7.83;;
7607;SDS011;3845;48.120;11.534;2023-09-30T02:00:00;13.60;;;7.50;;
7607;SDS011;3845;48.120;11.534;2023-09-30T02:02:25;14.20;;;7.80;;
7607;SDS011;3845;48.120;11.534;2023-09-30T02:04:51;13.33;;;8.10;;
7607;SDS011;3845;48.120;11.534;2023-09-30T02:07:16;15.23;;;8.23;;
7607;SDS011;3845;48.120;11.534;2023-09-30T02:09:41;12.60;;;7.50;;
7607;SDS011;3845;48.120;11.534;2023-09-30T02:12:08;13.80;;;8.20;;
7607;SDS011;3845;48.120;11.534;2023-09-30T02:14:34;15.90;;;8.47;;
7607;SDS011;3845;48.120;11.534;2023-09-30T02:16:59;13.37;;;7.67;;
7607;SDS011;3845;48.120;11.534;2023-09-30T02:19:24;14.70;;;7.63;;
7607;SDS011;3845;48.120;11.534;2023-09-30T02:21:52;13.97;;;8.30;;
7607;SDS011;3845;48.120;11.534;2023-09-30T02:24:17;13.30;;;7.77;;
7607;SDS011;3845;48.120;11.534;2023-09-30T02:26:42;14.63;;;8.03;;
7607;SDS011;3845;48.120;11.534;2023-09-30T02:29:08;14.40;;;7.93;;
7607;SDS011;3845;48.120;11.534;2023-09-30T02:31:33;14.63;;;8.10;;
7607;SDS011;3845;48.120;11.534;2023-09-30T02:33:59;12.07;;;7.30;;
7607;SDS011;3845;48.120;11.534;2023-09-30T02:36:24;14.30;;;8.00;;
7607;SDS011;3845;48.120;11.534;2023-09-30T02:38:50;15.07;;;8.77;;
7607;SDS011;3845;48.120;11.534;2023-09-30T02:41:15;15.67;;;8.77;;
7607;SDS011;3845;48.120;11.534;2023-09-30T02:43:41;16.43;;;8.83;;
7607;SDS011;3845;48.120;11.534;2023-09-30T02:46:06;16.03;;;9.17;;
7607;SDS011;3845;48.120;11.534;2023-09-30T02:48:33;14.90;;;8.60;;
7607;SDS011;3845;48.120;11.534;2023-09-30T02:50:58;15.80;;;8.37;;
7607;SDS011;3845;48.120;11.534;2023-09-30T02:53:23;12.83;;;8.03;;
7607;SDS011;3845;48.120;11.534;2023-09-30T02:55:49;15.93;;;10.00;;
7607;SDS011;3845;48.120;11.534;2023-09-30T02:58:17;19.70;;;11.00;;
7607;SDS011;3845;48.120;11.534;2023-09-30T03:00:47;17.23;;;10.10;;
7607;SDS011;3845;48.120;11.534;2023-09-30T03:03:14;15.27;;;9.20;;
7607;SDS011;3845;48.120;11.534;2023-09-30T03:05:39;17.57;;;10.80;;
7607;SDS011;3845;48.120;11.534;2023-09-30T03:08:05;15.47;;;9.90;;
7607;SDS011;3845;48.120;11.534;2023-09-30T03:10:30;17.73;;;10.70;;
7607;SDS011;3845;48.120;11.534;2023-09-30T03:12:56;16.63;;;9.93;;
7607;SDS011;3845;48.120;11.534;2023-09-30T03:15:26;16.77;;;9.23;;
7607;SDS011;3845;48.120;11.534;2023-09-30T03:17:51;16.50;;;8.67;;
7607;SDS011;3845;48.120;11.534;2023-09-30T03:20:18;15.87;;;9.13;;
7607;SDS011;3845;48.120;11.534;2023-09-30T03:22:45;14.63;;;8.77;;
7607;SDS011;3845;48.120;11.534;2023-09-30T03:25:12;14.70;;;8.10;;
7607;SDS011;3845;48.120;11.534;2023-09-30T03:27:37;14.47;;;8.07;;
7607;SDS011;3845;48.120;11.534;2023-09-30T03:30:07;13.80;;;8.10;;
7607;SDS011;3845;48.120;11.534;2023-09-30T03:32:33;12.93;;;8.10;;
7607;SDS011;3845;48.120;11.534;2023-09-30T03:34:59;12.33;;;6.93;;
7607;SDS011;3845;48.120;11.534;2023-09-30T03:37:26;12.90;;;7.77;;
7607;SDS011;3845;48.120;11.534;2023-09-30T03:39:55;15.73;;;8.50;;
7607;SDS011;3845;48.120;11.534;2023-09-30T03:42:20;12.97;;;7.30;;
7607;SDS011;3845;48.120;11.534;2023-09-30T03:44:46;12.90;;;7.57;;
7607;SDS011;3845;48.120;11.534;2023-09-30T03:47:13;15.50;;;8.20;;
7607;SDS011;3845;48.120;11.534;2023-09-30T03:49:39;17.07;;;8.73;;
7607;SDS011;3845;48.120;11.534;2023-09-30T03:52:04;13.93;;;8.23;;
7607;SDS011;3845;48.120;11.534;2023-09-30T03:54:31;15.87;;;8.70;;
7607;SDS011;3845;48.120;11.534;2023-09-30T03:56:56;14.27;;;8.20;;
7607;SDS011;3845;48.120;11.534;2023-09-30T03:59:22;13.57;;;8.27;;
7607;SDS011;3845;48.120;11.534;2023-09-30T04:01:48;12.07;;;7.23;;
7607;SDS011;3845;48.120;11.534;2023-09-30T04:04:13;14.00;;;7.67;;
7607;SDS011;3845;48.120;11.534;2023-09-30T04:06:38;15.00;;;7.80;;
7607;SDS011;3845;48.120;11.534;2023-09-30T04:09:07;13.77;;;8.07;;
7607;SDS011;3845;48.120;11.534;2023-09-30T04:11:36;14.17;;;7.67;;
7607;SDS011;3845;48.120;11.534;2023-09-30T04:14:02;13.43;;;7.57;;
7607;SDS011;3845;48.120;11.534;2023-09-30T04:16:31;13.03;;;7.13;;
7607;SDS011;3845;48.120;11.534;2023-09-30T04:18:57;13.13;;;7.27;;
7607;SDS011;3845;48.120;11.534;2023-09-30T04:21:22;14.00;;;7.30;;
7607;SDS011;3845;48.120;11.534;2023-09-30T04:23:48;13.47;;;7.33;;
7607;SDS011;3845;48.120;11.534;2023-09-30T04:26:14;14.43;;;8.30;;
7607;SDS011;3845;48.120;11.534;2023-09-30T04:28:40;13.17;;;7.23;;
7607;SDS011;3845;48.120;11.534;2023-09-30T04:31:05;12.50;;;7.53;;
7607;SDS011;3845;48.120;11.534;2023-09-30T04:33:32;14.20;;;8.00;;
7607;SDS011;3845;48.120;11.534;2023-09-30T04:36:00;12.97;;;7.53;;
7607;SDS011;3845;48.120;11.534;2023-09-30T04:38:25;14.17;;;8.03;;
7607;SDS011;3845;48.120;11.534;2023-09-30T04:40:51;14.57;;;8.57;;
7607;SDS011;3845;48.120;11.534;2023-09-30T04:43:17;15.43;;;8.97;;
7607;SDS011;3845;48.120;11.534;2023-09-30T04:45:42;16.93;;;9.77;;
7607;SDS011;3845;48.120;11.534;2023-09-30T04:48:08;14.47;;;8.57;;
7607;SDS011;3845;48.120;11.534;2023-09-30T04:50:33;12.60;;;7.80;;
7607;SDS011;3845;48.120;11.534;2023-09-30T04:52:59;14.23;;;8.27;;
7607;SDS011;3845;48.120;11.534;2023-09-30T04:55:24;15.63;;;9.00;;
7607;SDS011;3845;48.120;11.534;2023-09-30T04:57:50;15.80;;;8.53;;
7607;SDS011;3845;48.120;11.534;2023-09-30T05:00:16;14.13;;;7.63;;
7607;SDS011;3845;48.120;11.534;2023-09-30T05:02:43;13.87;;;7.53;;
7607;SDS011;3845;48.120;11.534;2023-09-30T05:05:09;12.70;;;7.00;;
7607;SDS011;3845;48.120;11.534;2023-09-30T05:07:35;12.10;;;6.50;;
7607;SDS011;3845;48.120;11.534;2023-09-30T05:10:01;13.57;;;7.33;;
7607;SDS011;3845;48.120;11.534;2023-09-30T05:12:30;12.13;;;6.90;;
7607;SDS011;3845;48.120;11.534;2023-09-30T05:14:55;11.90;;;6.80;;
7607;SDS011;3845;48.120;11.534;2023-09-30T05:17:20;11.67;;;7.10;;
7607;SDS011;3845;48.120;11.534;2023-09-30T05:19:45;12.87;;;6.83;;
7607;SDS011;3845;48.120;11.534;2023-09-30T05:22:11;11.73;;;6.40;;
7607;SDS011;3845;48.120;11.534;2023-09-30T05:24:37;10.73;;;6.30;;
7607;SDS011;3845;48.120;11.534;2023-09-30T05:27:02;10.80;;;6.10;;
7607;SDS011;3845;48.120;11.534;2023-09-30T05:29:28;12.90;;;6.77;;
7607;SDS011;3845;48.120;11.534;2023-09-30T05:31:54;12.60;;;7.20;;
7607;SDS011;3845;48.120;11.534;2023-09-30T05:34:19;11.43;;;6.43;;
7607;SDS011;3845;48.120;11.534;2023-09-30T05:36:44;10.90;;;5.87;;
7607;SDS011;3845;48.120;11.534;2023-09-30T05:39:10;12.87;;;6.90;;
7607;SDS011;3845;48.120;11.534;2023-09-30T05:41:35;11.10;;;6.30;;
7607;SDS011;3845;48.120;11.534;2023-09-30T05:44:02;11.03;;;6.40;;
7607;SDS011;3845;48.120;11.534;2023-09-30T05:46:28;11.43;;;5.83;;
7607;SDS011;3845;48.120;11.534;2023-09-30T05:48:55;10.57;;;6.43;;
7607;SDS011;3845;48.120;11.534;2023-09-30T05:51:21;12.03;;;6.50;;
7607;SDS011;3845;48.120;11.534;2023-09-30T05:53:46;12.90;;;6.70;;
7607;SDS011;3845;48.120;11.534;2023-09-30T05:56:13;12.13;;;7.60;;
7607;SDS011;3845;48.120;11.534;2023-09-30T05:58:40;13.53;;;7.93;;
7607;SDS011;3845;48.120;11.534;2023-09-30T06:01:09;13.40;;;7.33;;
7607;SDS011;3845;48.120;11.534;2023-09-30T06:03:43;13.40;;;7.63;;
7607;SDS011;3845;48.120;11.534;2023-09-30T06:06:12;15.50;;;8.83;;
7607;SDS011;3845;48.120;11.534;2023-09-30T06:08:38;14.03;;;8.10;;
7607;SDS011;3845;48.120;11.534;2023-09-30T06:11:03;15.07;;;9.00;;
7607;SDS011;3845;48.120;11.534;2023-09-30T06:13:29;15.27;;;8.83;;
7607;SDS011;3845;48.120;11.534;2023-09-30T06:15:56;16.00;;;8.57;;
7607;SDS011;3845;48.120;11.534;2023-09-30T06:18:22;17.33;;;9.83;;
7607;SDS011;3845;48.120;11.534;2023-09-30T06:20:47;16.93;;;10.33;;
7607;SDS011;3845;48.120;11.534;2023-09-30T06:23:14;15.43;;;9.87;;
7607;SDS011;3845;48.120;11.534;2023-09-30T06:25:39;18.80;;;10.77;;
7607;SDS011;3845;48.120;11.534;2023-09-30T06:28:05;18.47;;;10.20;;
7607;SDS011;3845;48.120;11.534;2023-09-30T06:30:30;16.70;;;9.53;;
7607;SDS011;3845;48.120;11.534;2023-09-30T06:32:58;14.20;;;8.30;;
7607;SDS011;3845;48.120;11.534;2023-09-30T06:35:25;15.10;;;8.53;;
7607;SDS011;3845;48.120;11.534;2023-09-30T06:37:55;13.50;;;7.47;;
7607;SDS011;3845;48.120;11.534;2023-09-30T06:40:20;16.30;;;9.23;;
7607;SDS011;3845;48.120;11.534;2023-09-30T06:42:45;13.97;;;8.03;;
7607;SDS011;3845;48.120;11.534;2023-09-30T06:45:10;13.63;;;7.90;;
7607;SDS011;3845;48.120;11.534;2023-09-30T06:47:39;12.70;;;7.30;;
7607;SDS011;3845;48.120;11.534;2023-09-30T06:50:10;12.10;;;7.07;;
7607;SDS011;3845;48.120;11.534;2023-09-30T06:52:38;11.50;;;6.23;;
7607;SDS011;3845;48.120;11.534;2023-09-30T06:55:04;11.80;;;6.50;;
7607;SDS011;3845;48.120;11.534;2023-09-30T06:57:34;14.23;;;7.53;;
7607;SDS011;3845;48.120;11.534;2023-09-30T07:00:00;13.03;;;7.07;;
7607;SDS011;3845;48.120;11.534;2023-09-30T07:02:26;12.07;;;7.03;;
7607;SDS011;3845;48.120;11.534;2023-09-30T07:04:52;15.00;;;8.10;;
7607;SDS011;3845;48.120;11.534;2023-09-30T07:07:18;11.30;;;6.60;;
7607;SDS011;3845;48.120;11.534;2023-09-30T07:09:43;13.60;;;7.47;;
7607;SDS011;3845;48.120;11.534;2023-09-30T07:12:09;12.20;;;7.00;;
7607;SDS011;3845;48.120;11.534;2023-09-30T07:14:34;12.43;;;7.07;;
7607;SDS011;3845;48.120;11.534;2023-09-30T07:16:59;12.30;;;6.67;;
7607;SDS011;3845;48.120;11.534;2023-09-30T07:19:25;8.70;;;5.40;;
7607;SDS011;3845;48.120;11.534;2023-09-30T07:21:50;13.07;;;7.03;;
7607;SDS011;3845;48.120;11.534;2023-09-30T07:24:15;11.67;;;6.43;;
7607;SDS011;3845;48.120;11.534;2023-09-30T07:26:41;13.80;;;7.47;;
7607;SDS011;3845;48.120;11.534;2023-09-30T07:29:06;12.63;;;7.50;;
7607;SDS011;3845;48.120;11.534;2023-09-30T07:31:35;12.50;;;6.70;;
7607;SDS011;3845;48.120;11.534;2023-09-30T07:34:00;13.03;;;7.47;;
7607;SDS011;3845;48.120;11.534;2023-09-30T07:36:26;11.00;;;6.40;;
7607;SDS011;3845;48.120;11.534;2023-09-30T07:38:51;10.27;;;5.87;;
7607;SDS011;3845;48.120;11.534;2023-09-30T07:41:17;10.90;;;6.73;;
7607;SDS011;3845;48.120;11.534;2023-09-30T07:43:43;12.47;;;6.50;;
7607;SDS011;3845;48.120;11.534;2023-09-30T07:46:08;11.03;;;6.80;;
7607;SDS011;3845;48.120;11.534;2023-09-30T07:48:34;11.73;;;7.70;;
7607;SDS011;3845;48.120;11.534;2023-09-30T07:51:00;11.27;;;7.23;;
7607;SDS011;3845;48.120;11.534;2023-09-30T07:53:25;13.83;;;7.60;;
7607;SDS011;3845;48.120;11.534;2023-09-30T07:55:51;11.90;;;6.67;;
7607;SDS011;3845;48.120;11.534;2023-09-30T07:58:17;9.03;;;5.80;;
7607;SDS011;3845;48.120;11.534;2023-09-30T08:00:42;12.47;;;6.67;;
7607;SDS011;3845;48.120;11.534;2023-09-30T08:03:08;9.33;;;5.40;;
7607;SDS011;3845;48.120;11.534;2023-09-30T08:05:33;11.30;;;6.33;;
7607;SDS011;3845;48.120;11.534;2023-09-30T08:07:58;10.03;;;6.03;;
7607;SDS011;3845;48.120;11.534;2023-09-30T08:10:24;10.33;;;5.97;;
7607;SDS011;3845;48.120;11.534;2023-09-30T08:12:49;10.97;;;6.10;;
7607;SDS011;3845;48.120;11.534;2023-09-30T08:15:15;11.37;;;6.47;;
7607;SDS011;3845;48.120;11.534;2023-09-30T08:17:41;12.03;;;7.90;;
7607;SDS011;3845;48.120;11.534;2023-09-30T08:20:06;12.40;;;7.13;;
7607;SDS011;3845;48.120;11.534;2023-09-30T08:22:33;12.03;;;7.70;;
7607;SDS011;3845;48.120;11.534;2023-09-30T08:24:59;9.07;;;5.87;;
7607;SDS011;3845;48.120;11.534;2023-09-30T08:27:25;7.77;;;5.10;;
7607;SDS011;3845;48.120;11.534;2023-09-30T08:29:50;9.90;;;5.93;;
7607;SDS011;3845;48.120;11.534;2023-09-30T08:32:15;8.07;;;4.80;;
7607;SDS011;3845;48.120;11.534;2023-09-30T08:34:41;9.57;;;5.77;;
7607;SDS011;3845;48.120;11.534;2023-09-30T08:37:06;10.80;;;6.50;;
7607;SDS011;3845;48.120;11.534;2023-09-30T08:39:32;12.20;;;6.73;;
7607;SDS011;3845;48.120;11.534;2023-09-30T08:41:57;11.23;;;6.47;;
7607;SDS011;3845;48.120;11.534;2023-09-30T08:44:23;13.60;;;7.87;;
7607;SDS011;3845;48.120;11.534;2023-09-30T08:46:48;12.60;;;7.83;;
7607;SDS011;3845;48.120;11.534;2023-09-30T08:49:14;13.43;;;7.80;;
7607;SDS011;3845;48.120;11.534;2023-09-30T08:51:40;10.10;;;6.83;;
7607;SDS011;3845;48.120;11.534;2023-09-30T08:54:05;11.43;;;6.63;;
7607;SDS011;3845;48.120;11.534;2023-09-30T08:56:31;11.53;;;7.00;;
7607;SDS011;3845;48.120;11.534;2023-09-30T08:59:00;11.20;;;6.87;;
7607;SDS011;3845;48.120;11.534;2023-09-30T09:01:27;10.60;;;6.30;;
7607;SDS011;3845;48.120;11.534;2023-09-30T09:03:53;13.63;;;7.83;;
7607;SDS011;3845;48.120;11.534;2023-09-30T09:06:20;14.47;;;9.33;;
7607;SDS011;3845;48.120;11.534;2023-09-30T09:08:49;14.77;;;8.40;;
7607;SDS011;3845;48.120;11.534;2023-09-30T09:11:15;12.73;;;7.53;;
7607;SDS011;3845;48.120;11.534;2023-09-30T09:13:50;11.73;;;7.43;;
7607;SDS011;3845;48.120;11.534;2023-09-30T09:16:20;12.50;;;8.30;;
7607;SDS011;3845;48.120;11.534;2023-09-30T09:18:47;15.63;;;10.93;;
7607;SDS011;3845;48.120;11.534;2023-09-30T09:21:17;13.47;;;8.57;;
7607;SDS011;3845;48.120;11.534;2023-09-30T09:23:45;11.23;;;6.87;;
7607;SDS011;3845;48.120;11.534;2023-09-30T09:26:12;9.00;;;5.80;;
7607;SDS011;3845;48.120;11.534;2023-09-30T09:29:03;11.37;;;6.90;;
7607;SDS011;3845;48.120;11.534;2023-09-30T09:31:33;9.10;;;5.70;;
7607;SDS011;3845;48.120;11.534;2023-09-30T09:34:00;9.13;;;5.37;;
7607;SDS011;3845;48.120;11.534;2023-09-30T09:36:42;11.67;;;7.10;;
7607;SDS011;3845;48.120;11.534;2023-09-30T09:39:08;9.97;;;6.10;;
7607;SDS011;3845;48.120;11.534;2023-09-30T09:44:20;11.50;;;6.73;;
7607;SDS011;3845;48.120;11.534;2023-09-30T09:46:47;13.10;;;6.43;;
7607;SDS011;3845;48.120;11.534;2023-09-30T09:49:13;13.10;;;7.00;;
7607;SDS011;3845;48.120;11.534;2023-09-30T09:51:41;11.33;;;5.87;;
7607;SDS011;3845;48.120;11.534;2023-09-30T09:54:09;8.53;;;5.33;;
7607;SDS011;3845;48.120;11.534;2023-09-30T09:56:34;9.93;;;5.67;;
7607;SDS011;3845;48.120;11.534;2023-09-30T09:59:01;10.00;;;5.50;;
7607;SDS011;3845;48.120;11.534;2023-09-30T10:01:29;10.00;;;5.67;;
7607;SDS011;3845;48.120;11.534;2023-09-30T10:04:05;10.73;;;7.23;;
7607;SDS011;3845;48.120;11.534;2023-09-30T10:06:31;10.90;;;7.17;;
7607;SDS011;3845;48.120;11.534;2023-09-30T10:09:03;13.17;;;7.17;;
7607;SDS011;3845;48.120;11.534;2023-09-30T10:11:31;10.97;;;6.47;;
7607;SDS011;3845;48.120;11.534;2023-09-30T10:13:57;9.03;;;5.70;;
7607;SDS011;3845;48.120;11.534;2023-09-30T10:24:46;11.03;;;6.90;;
7607;SDS011;3845;48.120;11.534;2023-09-30T10:30:05;10.77;;;6.90;;
7607;SDS011;3845;48.120;11.534;2023-09-30T10:35:41;8.60;;;5.27;;
7607;SDS011;3845;48.120;11.534;2023-09-30T10:40:48;13.60;;;8.17;;
7607;SDS011;3845;48.120;11.534;2023-09-30T10:46:00;8.67;;;5.20;;
7607;SDS011;3845;48.120;11.534;2023-09-30T10:51:00;11.90;;;6.73;;
7607;SDS011;3845;48.120;11.534;2023-09-30T10:53:29;11.40;;;6.73;;
7607;SDS011;3845;48.120;11.534;2023-09-30T10:55:58;11.27;;;6.17;;
7607;SDS011;3845;48.120;11.534;2023-09-30T10:58:40;7.93;;;5.10;;
7607;SDS011;3845;48.120;11.534;2023-09-30T11:01:16;9.77;;;5.57;;
7607;SDS011;3845;48.120;11.534;2023-09-30T11:03:44;8.47;;;5.00;;
7607;SDS011;3845;48.120;11.534;2023-09-30T11:06:11;11.17;;;6.33;;
7607;SDS011;3845;48.120;11.534;2023-09-30T11:08:51;9.90;;;5.73;;
7607;SDS011;3845;48.120;11.534;2023-09-30T11:11:18;8.97;;;5.00;;
7607;SDS011;3845;48.120;11.534;2023-09-30T11:13:43;11.67;;;6.73;;
7607;SDS011;3845;48.120;11.534;2023-09-30T11:16:09;10.90;;;6.90;;
7607;SDS011;3845;48.120;11.534;2023-09-30T11:18:34;12.97;;;7.83;;
7607;SDS011;3845;48.120;11.534;2023-09-30T11:21:03;10.67;;;7.17;;
7607;SDS011;3845;48.120;11.534;2023-09-30T11:23:36;8.23;;;5.20;;
7607;SDS011;3845;48.120;11.534;2023-09-30T11:26:02;9.87;;;4.90;;
7607;SDS011;3845;48.120;11.534;2023-09-30T11:28:35;10.33;;;7.20;;
7607;SDS011;3845;48.120;11.534;2023-09-30T11:31:01;7.80;;;4.90;;
7607;SDS011;3845;48.120;11.534;2023-09-30T11:33:27;8.63;;;5.50;;
7607;SDS011;3845;48.120;11.534;2023-09-30T11:36:02;10.67;;;5.73;;
7607;SDS011;3845;48.120;11.534;2023-09-30T11:38:32;10.13;;;5.43;;
7607;SDS011;3845;48.120;11.534;2023-09-30T11:41:03;9.17;;;5.13;;
7607;SDS011;3845;48.120;11.534;2023-09-30T11:43:33;8.63;;;5.20;;
7607;SDS011;3845;48.120;11.534;2023-09-30T11:46:12;12.20;;;6.60;;
7607;SDS011;3845;48.120;11.534;2023-09-30T11:48:39;10.87;;;5.70;;
7607;SDS011;3845;48.120;11.534;2023-09-30T11:51:20;11.17;;;6.70;;
7607;SDS011;3845;48.120;11.534;2023-09-30T11:53:49;7.37;;;5.30;;
7607;SDS011;3845;48.120;11.534;2023-09-30T11:56:15;9.57;;;5.37;;
7607;SDS011;3845;48.120;11.534;2023-09-30T11:58:40;7.93;;;5.30;;
7607;SDS011;3845;48.120;11.534;2023-09-30T12:01:05;8.37;;;5.00;;
7607;SDS011;3845;48.120;11.534;2023-09-30T12:03:31;7.47;;;4.60;;
7607;SDS011;3845;48.120;11.534;2023-09-30T12:06:01;8.07;;;5.00;;
7607;SDS011;3845;48.120;11.534;2023-09-30T12:08:27;10.40;;;6.30;;
7607;SDS011;3845;48.120;11.534;2023-09-30T12:10:52;9.53;;;5.80;;
7607;SDS011;3845;48.120;11.534;2023-09-30T12:13:17;8.70;;;5.03;;
7607;SDS011;3845;48.120;11.534;2023-09-30T12:15:43;8.17;;;5.00;;
7607;SDS011;3845;48.120;11.534;2023-09-30T12:18:09;10.23;;;5.40;;
7607;SDS011;3845;48.120;11.534;2023-09-30T12:20:35;9.40;;;5.43;;
7607;SDS011;3845;48.120;11.534;2023-09-30T12:23:01;12.73;;;8.10;;
7607;SDS011;3845;48.120;11.534;2023-09-30T12:25:26;13.13;;;7.67;;
7607;SDS011;3845;48.120;11.534;2023-09-30T12:27:53;11.27;;;6.37;;
7607;SDS011;3845;48.120;11.534;2023-09-30T12:30:20;11.13;;;7.13;;
7607;SDS011;3845;48.120;11.534;2023-09-30T12:32:46;9.77;;;6.53;;
7607;SDS011;3845;48.120;11.534;2023-09-30T12:35:11;9.83;;;5.70;;
7607;SDS011;3845;48.120;11.534;2023-09-30T12:37:37;14.47;;;9.57;;
7607;SDS011;3845;48.120;11.534;2023-09-30T12:40:03;14.30;;;8.90;;
7607;SDS011;3845;48.120;11.534;2023-09-30T12:42:31;11.93;;;7.70;;
7607;SDS011;3845;48.120;11.534;2023-09-30T12:44:59;14.73;;;8.13;;
7607;SDS011;3845;48.120;11.534;2023-09-30T12:47:24;13.47;;;7.30;;
7607;SDS011;3845;48.120;11.534;2023-09-30T12:49:50;18.63;;;9.47;;
7607;SDS011;3845;48.120;11.534;2023-09-30T12:52:17;14.90;;;8.37;;
7607;SDS011;3845;48.120;11.534;2023-09-30T12:54:42;17.23;;;9.30;;
7607;SDS011;3845;48.120;11.534;2023-09-30T12:57:07;14.90;;;8.00;;
7607;SDS011;3845;48.120;11.534;2023-09-30T12:59:33;13.73;;;7.47;;
7607;SDS011;3845;48.120;11.534;2023-09-30T13:01:59;14.87;;;8.40;;
7607;SDS011;3845;48.120;11.534;2023-09-30T13:04:24;13.53;;;8.37;;
7607;SDS011;3845;48.120;11.534;2023-09-30T13:06:51;15.10;;;9.77;;
7607;SDS011;3845;48.120;11.534;2023-09-30T13:09:16;12.73;;;8.27;;
7607;SDS011;3845;48.120;11.534;2023-09-30T13:11:42;13.83;;;8.23;;
7607;SDS011;3845;48.120;11.534;2023-09-30T13:14:07;16.43;;;9.33;;
7607;SDS011;3845;48.120;11.534;2023-09-30T13:16:32;14.37;;;7.73;;
7607;SDS011;3845;48.120;11.534;2023-09-30T13:18:57;13.30;;;7.97;;
7607;SDS011;3845;48.120;11.534;2023-09-30T13:21:23;11.70;;;7.10;;
7607;SDS011;3845;48.120;11.534;2023-09-30T13:23:48;13.00;;;7.30;;
7607;SDS011;3845;48.120;11.534;2023-09-30T13:26:13;14.70;;;8.27;;
7607;SDS011;3845;48.120;11.534;2023-09-30T13:28:38;11.93;;;7.17;;
7607;SDS011;3845;48.120;11.534;2023-09-30T13:31:04;13.20;;;7.97;;
7607;SDS011;3845;48.120;11.534;2023-09-30T13:33:30;12.37;;;6.70;;
7607;SDS011;3845;48.120;11.534;2023-09-30T13:35:55;10.13;;;6.20;;
7607;SDS011;3845;48.120;11.534;2023-09-30T13:38:21;10.67;;;6.47;;
7607;SDS011;3845;48.120;11.534;2023-09-30T13:40:46;11.43;;;6.97;;
7607;SDS011;3845;48.120;11.534;2023-09-30T13:43:12;10.73;;;6.40;;
7607;SDS011;3845;48.120;11.534;2023-09-30T13:45:37;9.70;;;6.30;;
7607;SDS011;3845;48.120;11.534;2023-09-30T13:48:02;10.53;;;6.17;;
7607;SDS011;3845;48.120;11.534;2023-09-30T13:50:28;8.90;;;5.83;;
7607;SDS011;3845;48.120;11.534;2023-09-30T13:52:53;16.23;;;9.33;;
7607;SDS011;3845;48.120;11.534;2023-09-30T13:55:18;11.70;;;7.83;;
7607;SDS011;3845;48.120;11.534;2023-09-30T13:57:47;16.20;;;8.83;;
7607;SDS011;3845;48.120;11.534;2023-09-30T14:00:16;13.43;;;7.83;;
7607;SDS011;3845;48.120;11.534;2023-09-30T14:02:42;12.43;;;8.23;;
7607;SDS011;3845;48.120;11.534;2023-09-30T14:05:08;10.87;;;7.60;;
7607;SDS011;3845;48.120;11.534;2023-09-30T14:07:34;16.17;;;8.57;;
7607;SDS011;3845;48.120;11.534;2023-09-30T14:10:00;12.13;;;7.67;;
7607;SDS011;3845;48.120;11.534;2023-09-30T14:12:25;10.13;;;6.57;;
7607;SDS011;3845;48.120;11.534;2023-09-30T14:14:50;11.10;;;6.03;;
7607;SDS011;3845;48.120;11.534;2023-09-30T14:17:16;12.73;;;8.27;;
7607;SDS011;3845;48.120;11.534;2023-09-30T14:19:42;13.33;;;7.73;;
7607;SDS011;3845;48.120;11.534;2023-09-30T14:22:08;12.03;;;7.03;;
7607;SDS011;3845;48.120;11.534;2023-09-30T14:24:34;9.37;;;6.23;;
7607;SDS011;3845;48.120;11.534;2023-09-30T14:27:01;9.60;;;6.00;;
7607;SDS011;3845;48.120;11.534;2023-09-30T14:29:28;8.37;;;5.20;;
7607;SDS011;3845;48.120;11.534;2023-09-30T14:31:54;9.03;;;5.80;;
7607;SDS011;3845;48.120;11.534;2023-09-30T14:34:20;7.40;;;4.80;;
7607;SDS011;3845;48.120;11.534;2023-09-30T14:36:45;8.67;;;5.63;;
7607;SDS011;3845;48.120;11.534;2023-09-30T14:39:10;10.63;;;5.30;;
7607;SDS011;3845;48.120;11.534;2023-09-30T14:41:36;7.73;;;4.60;;
7607;SDS011;3845;48.120;11.534;2023-09-30T14:44:01;9.43;;;4.80;;
7607;SDS011;3845;48.120;11.534;2023-09-30T14:46:33;8.73;;;5.43;;
7607;SDS011;3845;48.120;11.534;2023-09-30T14:48:59;9.63;;;5.47;;
7607;SDS011;3845;48.120;11.534;2023-09-30T14:51:25;9.23;;;5.50;;
7607;SDS011;3845;48.120;11.534;2023-09-30T14:53:50;9.87;;;6.03;;
7607;SDS011;3845;48.120;11.534;2023-09-30T14:56:15;10.23;;;6.87;;
7607;SDS011;3845;48.120;11.534;2023-09-30T14:58:42;12.60;;;8.83;;
7607;SDS011;3845;48.120;11.534;2023-09-30T15:01:08;11.07;;;7.30;;
7607;SDS011;3845;48.120;11.534;2023-09-30T15:03:33;8.17;;;5.80;;
7607;SDS011;3845;48.120;11.534;2023-09-30T15:06:02;10.23;;;6.43;;
7607;SDS011;3845;48.120;11.534;2023-09-30T15:08:27;8.97;;;5.37;;
7607;SDS011;3845;48.120;11.534;2023-09-30T15:10:52;7.73;;;4.97;;